KAIZ/AIZ METAR and TAF weather

Enter ICAO airport designator
Station Type Date Time Source
KAIZ METAR 2020/04/09 18:56 UTC NOAA

KAIZ 091856Z AUTO 32012G20KT 10SM CLR 16/M06 A3001 RMK AO2 SLP160 T01561061


Station Type Date Time Source
KAIZ Decoded METAR 2020/04/09 18:56 UTC NOAA

Kaiser Lake Ozark, Lee C Fine Memorial Airport, MO, United States (KAIZ) 38-06N 092-33W
Apr 09, 2020 - 02:56 PM EDT / 2020.04.09 1856 UTC
Wind: from the NW (320 degrees) at 14 MPH (12 KT) gusting to 23 MPH (20 KT):0
Visibility: 10 mile(s):0
Sky conditions: clear
Temperature: 60.1 F (15.6 C)
Dew Point: 21.0 F (-6.1 C)
Relative Humidity: 21%
Pressure (altimeter): 30.01 in. Hg (1016 hPa)
ob: KAIZ 091856Z AUTO 32012G20KT 10SM CLR 16/M06 A3001 RMK AO2 SLP160 T01561061
cycle: 19

Station Type Date Time Source
KAIZ TAF UTC NOAA

Error!

Example: see airport list